sensor_id;sensor_type;location;lat;lon;timestamp;pressure;altitude;pressure_sealevel;temperature;humidity
54910;BME280;63189;51.240;9.964;2023-04-08T00:01:27;98270.06;;;5.44;63.76
54910;BME280;63189;51.240;9.964;2023-04-08T00:03:53;98261.44;;;5.41;63.19
54910;BME280;63189;51.240;9.964;2023-04-08T00:06:18;98275.19;;;5.47;63.48
54910;BME280;63189;51.240;9.964;2023-04-08T00:08:44;98245.09;;;5.31;64.17
54910;BME280;63189;51.240;9.964;2023-04-08T00:11:09;98255.41;;;5.39;64.48
54910;BME280;63189;51.240;9.964;2023-04-08T00:13:35;98267.47;;;5.44;64.32
54910;BME280;63189;51.240;9.964;2023-04-08T00:16:00;98214.19;;;5.13;64.59
54910;BME280;63189;51.240;9.964;2023-04-08T00:18:25;98239.13;;;5.25;64.58
54910;BME280;63189;51.240;9.964;2023-04-08T00:20:51;98273.50;;;5.39;65.25
54910;BME280;63189;51.240;9.964;2023-04-08T00:23:17;98265.78;;;5.34;66.28
54910;BME280;63189;51.240;9.964;2023-04-08T00:25:43;98264.94;;;5.31;67.00
54910;BME280;63189;51.240;9.964;2023-04-08T00:28:09;98279.56;;;5.36;66.94
54910;BME280;63189;51.240;9.964;2023-04-08T00:30:35;98276.97;;;5.38;66.53
54910;BME280;63189;51.240;9.964;2023-04-08T00:33:00;98277.00;;;5.35;66.28
54910;BME280;63189;51.240;9.964;2023-04-08T00:35:26;98247.72;;;5.20;65.91
54910;BME280;63189;51.240;9.964;2023-04-08T00:37:51;98252.06;;;5.21;65.27
54910;BME280;63189;51.240;9.964;2023-04-08T00:40:17;98271.81;;;5.30;64.62
54910;BME280;63189;51.240;9.964;2023-04-08T00:42:42;98274.41;;;5.33;64.17
54910;BME280;63189;51.240;9.964;2023-04-08T00:45:08;98267.53;;;5.32;64.94
54910;BME280;63189;51.240;9.964;2023-04-08T00:47:35;98263.22;;;5.33;65.66
54910;BME280;63189;51.240;9.964;2023-04-08T00:50:01;98248.59;;;5.24;65.51
54910;BME280;63189;51.240;9.964;2023-04-08T00:52:26;98273.50;;;5.40;65.21
54910;BME280;63189;51.240;9.964;2023-04-08T00:54:51;98270.06;;;5.43;64.83
54910;BME280;63189;51.240;9.964;2023-04-08T00:57:17;98265.75;;;5.42;64.66
54910;BME280;63189;51.240;9.964;2023-04-08T00:59:42;98278.66;;;5.45;64.21
54910;BME280;63189;51.240;9.964;2023-04-08T01:04:52;98282.06;;;5.50;63.55
54910;BME280;63189;51.240;9.964;2023-04-08T01:07:28;98264.03;;;5.39;63.65
54910;BME280;63189;51.240;9.964;2023-04-08T01:09:58;98262.31;;;5.38;62.90
54910;BME280;63189;51.240;9.964;2023-04-08T01:12:26;98276.06;;;5.46;63.03
54910;BME280;63189;51.240;9.964;2023-04-08T01:15:05;98277.81;;;5.41;62.40
54910;BME280;63189;51.240;9.964;2023-04-08T01:17:32;98270.91;;;5.40;63.82
54910;BME280;63189;51.240;9.964;2023-04-08T01:20:01;98235.69;;;5.18;63.58
54910;BME280;63189;51.240;9.964;2023-04-08T01:25:20;98270.94;;;5.36;64.72
54910;BME280;63189;51.240;9.964;2023-04-08T01:27:48;98260.63;;;5.28;64.98
54910;BME280;63189;51.240;9.964;2023-04-08T01:30:17;98235.72;;;5.10;65.51
54910;BME280;63189;51.240;9.964;2023-04-08T01:32:43;98252.94;;;5.22;65.68
54910;BME280;63189;51.240;9.964;2023-04-08T01:35:11;98245.19;;;5.16;65.44
54910;BME280;63189;51.240;9.964;2023-04-08T01:37:37;98248.66;;;5.13;66.17
54910;BME280;63189;51.240;9.964;2023-04-08T01:40:06;98240.03;;;5.10;66.30
54910;BME280;63189;51.240;9.964;2023-04-08T01:42:33;98255.50;;;5.22;66.05
54910;BME280;63189;51.240;9.964;2023-04-08T01:45:00;98248.63;;;5.21;66.14
54910;BME280;63189;51.240;9.964;2023-04-08T01:47:26;98256.34;;;5.27;66.02
54910;BME280;63189;51.240;9.964;2023-04-08T01:49:54;98263.22;;;5.30;66.57
54910;BME280;63189;51.240;9.964;2023-04-08T01:52:21;98264.06;;;5.30;66.89
54910;BME280;63189;51.240;9.964;2023-04-08T01:54:47;98222.81;;;5.13;66.72
54910;BME280;63189;51.240;9.964;2023-04-08T01:57:23;98264.06;;;5.33;67.90
54910;BME280;63189;51.240;9.964;2023-04-08T01:59:51;98240.00;;;5.22;67.11
54910;BME280;63189;51.240;9.964;2023-04-08T02:02:19;98258.91;;;5.33;66.94
54910;BME280;63189;51.240;9.964;2023-04-08T02:04:45;98256.31;;;5.30;67.08
54910;BME280;63189;51.240;9.964;2023-04-08T02:07:11;98263.19;;;5.31;67.60
54910;BME280;63189;51.240;9.964;2023-04-08T02:09:36;98246.00;;;5.26;67.68
54910;BME280;63189;51.240;9.964;2023-04-08T02:12:02;98259.78;;;5.26;66.77
54910;BME280;63189;51.240;9.964;2023-04-08T02:14:27;98250.31;;;5.19;66.46
54910;BME280;63189;51.240;9.964;2023-04-08T02:17:01;98239.19;;;5.11;66.67
54910;BME280;63189;51.240;9.964;2023-04-08T02:19:33;98276.16;;;5.27;66.25
54910;BME280;63189;51.240;9.964;2023-04-08T02:22:16;98272.72;;;5.25;66.08
54910;BME280;63189;51.240;9.964;2023-04-08T02:24:43;98275.31;;;5.23;66.41
54910;BME280;63189;51.240;9.964;2023-04-08T02:27:09;98270.16;;;5.21;68.04
54910;BME280;63189;51.240;9.964;2023-04-08T02:29:35;98259.00;;;5.12;66.84
54910;BME280;63189;51.240;9.964;2023-04-08T02:32:03;98280.47;;;5.20;67.33
54910;BME280;63189;51.240;9.964;2023-04-08T02:34:29;98277.06;;;5.16;66.92
54910;BME280;63189;51.240;9.964;2023-04-08T02:36:56;98247.81;;;5.07;66.94
54910;BME280;63189;51.240;9.964;2023-04-08T02:39:29;98265.88;;;5.16;67.08
54910;BME280;63189;51.240;9.964;2023-04-08T02:41:55;98267.56;;;5.17;67.43
54910;BME280;63189;51.240;9.964;2023-04-08T02:44:20;98266.75;;;5.12;67.97
54910;BME280;63189;51.240;9.964;2023-04-08T02:46:46;98246.13;;;5.01;68.04
54910;BME280;63189;51.240;9.964;2023-04-08T02:49:11;98225.50;;;4.86;68.07
54910;BME280;63189;51.240;9.964;2023-04-08T02:51:36;98272.78;;;5.11;69.00
54910;BME280;63189;51.240;9.964;2023-04-08T02:54:02;98255.56;;;4.99;69.79
54910;BME280;63189;51.240;9.964;2023-04-08T02:56:27;98276.22;;;5.11;69.81
54910;BME280;63189;51.240;9.964;2023-04-08T02:58:53;98276.22;;;5.07;71.80
54910;BME280;63189;51.240;9.964;2023-04-08T03:01:19;98270.22;;;5.03;71.66
54910;BME280;63189;51.240;9.964;2023-04-08T03:03:44;98247.06;;;4.80;73.14
54910;BME280;63189;51.240;9.964;2023-04-08T03:06:10;98253.03;;;4.87;74.47
54910;BME280;63189;51.240;9.964;2023-04-08T03:08:35;98275.41;;;4.96;75.83
54910;BME280;63189;51.240;9.964;2023-04-08T03:11:01;98282.31;;;4.93;77.06
54910;BME280;63189;51.240;9.964;2023-04-08T03:13:26;98283.16;;;4.96;75.84
54910;BME280;63189;51.240;9.964;2023-04-08T03:15:53;98275.41;;;4.94;77.54
54910;BME280;63189;51.240;9.964;2023-04-08T03:18:19;98269.41;;;4.92;78.37
54910;BME280;63189;51.240;9.964;2023-04-08T03:20:45;98265.94;;;4.88;78.46
54910;BME280;63189;51.240;9.964;2023-04-08T03:23:11;98265.09;;;4.85;79.55
54910;BME280;63189;51.240;9.964;2023-04-08T03:25:36;98262.50;;;4.86;78.68
54910;BME280;63189;51.240;9.964;2023-04-08T03:28:01;98259.09;;;4.84;80.21
54910;BME280;63189;51.240;9.964;2023-04-08T03:30:27;98278.00;;;4.86;81.46
54910;BME280;63189;51.240;9.964;2023-04-08T03:32:52;98260.84;;;4.73;81.83
54910;BME280;63189;51.240;9.964;2023-04-08T03:35:17;98283.16;;;4.88;82.04
54910;BME280;63189;51.240;9.964;2023-04-08T03:37:43;98260.81;;;4.76;82.45
54910;BME280;63189;51.240;9.964;2023-04-08T03:40:09;98276.31;;;4.82;83.13
54910;BME280;63189;51.240;9.964;2023-04-08T03:42:34;98280.63;;;4.83;83.55
54910;BME280;63189;51.240;9.964;2023-04-08T03:45:00;98285.78;;;4.82;83.30
54910;BME280;63189;51.240;9.964;2023-04-08T03:47:25;98284.03;;;4.79;84.55
54910;BME280;63189;51.240;9.964;2023-04-08T03:49:54;98278.91;;;4.73;86.11
54910;BME280;63189;51.240;9.964;2023-04-08T03:52:20;98285.78;;;4.74;84.83
54910;BME280;63189;51.240;9.964;2023-04-08T03:54:45;98290.09;;;4.75;86.07
54910;BME280;63189;51.240;9.964;2023-04-08T03:57:10;98290.13;;;4.72;86.70
54910;BME280;63189;51.240;9.964;2023-04-08T03:59:36;98295.28;;;4.74;87.19
54910;BME280;63189;51.240;9.964;2023-04-08T04:02:03;98296.13;;;4.74;87.17
54910;BME280;63189;51.240;9.964;2023-04-08T04:04:29;98303.88;;;4.77;87.34
54910;BME280;63189;51.240;9.964;2023-04-08T04:06:54;98280.66;;;4.62;88.82
54910;BME280;63189;51.240;9.964;2023-04-08T04:09:20;98310.75;;;4.77;88.88
54910;BME280;63189;51.240;9.964;2023-04-08T04:11:45;98284.09;;;4.64;89.05
54910;BME280;63189;51.240;9.964;2023-04-08T04:14:11;98309.91;;;4.72;90.33
54910;BME280;63189;51.240;9.964;2023-04-08T04:16:36;98295.28;;;4.64;90.54
54910;BME280;63189;51.240;9.964;2023-04-08T04:19:02;98283.25;;;4.56;89.61
54910;BME280;63189;51.240;9.964;2023-04-08T04:21:30;98314.22;;;4.65;92.76
54910;BME280;63189;51.240;9.964;2023-04-08T04:23:55;98310.78;;;4.63;92.65
54910;BME280;63189;51.240;9.964;2023-04-08T04:26:21;98304.75;;;4.64;91.09
54910;BME280;63189;51.240;9.964;2023-04-08T04:28:46;98274.66;;;4.39;92.00
54910;BME280;63189;51.240;9.964;2023-04-08T04:31:23;98312.50;;;4.64;93.76
54910;BME280;63189;51.240;9.964;2023-04-08T04:33:51;98317.66;;;4.64;93.33
54910;BME280;63189;51.240;9.964;2023-04-08T04:36:20;98303.06;;;4.51;93.68
54910;BME280;63189;51.240;9.964;2023-04-08T04:38:45;98280.66;;;4.38;92.85
54910;BME280;63189;51.240;9.964;2023-04-08T04:41:11;98288.44;;;4.41;93.84
54910;BME280;63189;51.240;9.964;2023-04-08T04:43:36;98322.81;;;4.58;95.42
54910;BME280;63189;51.240;9.964;2023-04-08T04:46:01;98330.59;;;4.59;95.11
54910;BME280;63189;51.240;9.964;2023-04-08T04:48:32;98322.00;;;4.59;95.24
54910;BME280;63189;51.240;9.964;2023-04-08T04:50:58;98321.13;;;4.60;95.67
54910;BME280;63189;51.240;9.964;2023-04-08T04:53:25;98321.13;;;4.61;96.03
54910;BME280;63189;51.240;9.964;2023-04-08T04:55:50;98282.41;;;4.31;96.76
54910;BME280;63189;51.240;9.964;2023-04-08T04:58:16;98340.91;;;4.61;96.60
54910;BME280;63189;51.240;9.964;2023-04-08T05:00:42;98315.09;;;4.46;95.85
54910;BME280;63189;51.240;9.964;2023-04-08T05:03:08;98314.22;;;4.53;97.34
54910;BME280;63189;51.240;9.964;2023-04-08T05:05:33;98331.44;;;4.54;98.83
54910;BME280;63189;51.240;9.964;2023-04-08T05:07:59;98302.19;;;4.33;99.68
54910;BME280;63189;51.240;9.964;2023-04-08T05:10:24;98321.13;;;4.42;99.83
54910;BME280;63189;51.240;9.964;2023-04-08T05:12:50;98349.50;;;4.55;99.48
54910;BME280;63189;51.240;9.964;2023-04-08T05:15:15;98336.63;;;4.51;100.00
54910;BME280;63189;51.240;9.964;2023-04-08T05:17:40;98341.78;;;4.52;99.96
54910;BME280;63189;51.240;9.964;2023-04-08T05:20:06;98336.59;;;4.45;100.00
54910;BME280;63189;51.240;9.964;2023-04-08T05:22:32;98357.28;;;4.51;100.00
54910;BME280;63189;51.240;9.964;2023-04-08T05:24:57;98356.41;;;4.52;100.00
54910;BME280;63189;51.240;9.964;2023-04-08T05:27:22;98366.75;;;4.52;100.00
54910;BME280;63189;51.240;9.964;2023-04-08T05:29:47;98352.09;;;4.45;100.00
54910;BME280;63189;51.240;9.964;2023-04-08T05:32:13;98361.56;;;4.52;100.00
54910;BME280;63189;51.240;9.964;2023-04-08T05:34:40;98363.28;;;4.53;100.00
54910;BME280;63189;51.240;9.964;2023-04-08T05:37:06;98356.41;;;4.49;100.00
54910;BME280;63189;51.240;9.964;2023-04-08T05:39:31;98354.69;;;4.49;100.00
54910;BME280;63189;51.240;9.964;2023-04-08T05:41:57;98359.84;;;4.45;100.00
54910;BME280;63189;51.240;9.964;2023-04-08T05:44:22;98363.28;;;4.56;100.00
54910;BME280;63189;51.240;9.964;2023-04-08T05:46:47;98360.72;;;4.50;100.00
54910;BME280;63189;51.240;9.964;2023-04-08T05:49:13;98369.31;;;4.55;100.00
54910;BME280;63189;51.240;9.964;2023-04-08T05:51:38;98354.69;;;4.51;100.00
54910;BME280;63189;51.240;9.964;2023-04-08T05:54:04;98351.25;;;4.53;100.00
54910;BME280;63189;51.240;9.964;2023-04-08T05:56:29;98352.97;;;4.53;100.00
54910;BME280;63189;51.240;9.964;2023-04-08T05:58:56;98337.47;;;4.38;100.00
54910;BME280;63189;51.240;9.964;2023-04-08T06:01:24;98368.44;;;4.56;100.00
54910;BME280;63189;51.240;9.964;2023-04-08T06:03:50;98362.44;;;4.54;100.00
54910;BME280;63189;51.240;9.964;2023-04-08T06:06:17;98359.84;;;4.51;100.00
54910;BME280;63189;51.240;9.964;2023-04-08T06:08:42;98359.00;;;4.49;100.00
54910;BME280;63189;51.240;9.964;2023-04-08T06:11:07;98373.63;;;4.59;100.00
54910;BME280;63189;51.240;9.964;2023-04-08T06:13:33;98365.88;;;4.59;100.00
54910;BME280;63189;51.240;9.964;2023-04-08T06:16:09;98373.63;;;4.62;100.00
54910;BME280;63189;51.240;9.964;2023-04-08T06:18:34;98328.84;;;4.37;100.00
54910;BME280;63189;51.240;9.964;2023-04-08T06:20:59;98379.66;;;4.59;100.00
54910;BME280;63189;51.240;9.964;2023-04-08T06:23:25;98364.16;;;4.55;100.00
54910;BME280;63189;51.240;9.964;2023-04-08T06:25:52;98359.84;;;4.48;100.00
54910;BME280;63189;51.240;9.964;2023-04-08T06:28:18;98368.47;;;4.54;100.00
54910;BME280;63189;51.240;9.964;2023-04-08T06:30:43;98392.56;;;4.59;100.00
54910;BME280;63189;51.240;9.964;2023-04-08T06:33:09;98391.72;;;4.62;100.00
54910;BME280;63189;51.240;9.964;2023-04-08T06:35:34;98401.16;;;4.64;100.00
54910;BME280;63189;51.240;9.964;2023-04-08T06:38:02;98400.31;;;4.52;100.00
54910;BME280;63189;51.240;9.964;2023-04-08T06:40:27;98400.28;;;4.58;100.00
54910;BME280;63189;51.240;9.964;2023-04-08T06:42:52;98411.47;;;4.58;100.00
54910;BME280;63189;51.240;9.964;2023-04-08T06:45:19;98411.50;;;4.60;100.00
54910;BME280;63189;51.240;9.964;2023-04-08T06:47:44;98396.84;;;4.56;100.00
54910;BME280;63189;51.240;9.964;2023-04-08T06:50:10;98402.03;;;4.56;100.00
54910;BME280;63189;51.240;9.964;2023-04-08T06:52:35;98390.81;;;4.43;100.00
54910;BME280;63189;51.240;9.964;2023-04-08T06:55:00;98419.22;;;4.57;100.00
54910;BME280;63189;51.240;9.964;2023-04-08T06:57:26;98429.56;;;4.57;100.00
54910;BME280;63189;51.240;9.964;2023-04-08T06:59:51;98435.59;;;4.62;100.00
54910;BME280;63189;51.240;9.964;2023-04-08T07:02:17;98424.41;;;4.55;100.00
54910;BME280;63189;51.240;9.964;2023-04-08T07:04:43;98405.47;;;4.49;100.00
54910;BME280;63189;51.240;9.964;2023-04-08T07:07:08;98439.03;;;4.67;100.00
54910;BME280;63189;51.240;9.964;2023-04-08T07:09:34;98427.88;;;4.62;100.00
54910;BME280;63189;51.240;9.964;2023-04-08T07:12:00;98412.34;;;4.51;100.00
54910;BME280;63189;51.240;9.964;2023-04-08T07:14:26;98419.22;;;4.55;100.00
54910;BME280;63189;51.240;9.964;2023-04-08T07:16:51;98441.63;;;4.67;100.00
54910;BME280;63189;51.240;9.964;2023-04-08T07:19:17;98451.09;;;4.67;100.00
54910;BME280;63189;51.240;9.964;2023-04-08T07:21:43;98439.91;;;4.63;100.00
54910;BME280;63189;51.240;9.964;2023-04-08T07:24:08;98428.72;;;4.59;100.00
54910;BME280;63189;51.240;9.964;2023-04-08T07:26:33;98443.38;;;4.71;100.00
54910;BME280;63189;51.240;9.964;2023-04-08T07:28:59;98450.25;;;4.75;100.00
54910;BME280;63189;51.240;9.964;2023-04-08T07:31:24;98451.13;;;4.73;100.00
54910;BME280;63189;51.240;9.964;2023-04-08T07:33:50;98463.19;;;4.81;100.00
54910;BME280;63189;51.240;9.964;2023-04-08T07:36:15;98460.56;;;4.87;100.00
54910;BME280;63189;51.240;9.964;2023-04-08T07:38:42;98472.63;;;4.88;100.00
54910;BME280;63189;51.240;9.964;2023-04-08T07:41:07;98476.09;;;4.90;100.00
54910;BME280;63189;51.240;9.964;2023-04-08T07:43:33;98471.78;;;4.86;100.00
54910;BME280;63189;51.240;9.964;2023-04-08T07:46:03;98466.59;;;4.88;100.00
54910;BME280;63189;51.240;9.964;2023-04-08T07:48:30;98478.66;;;5.00;100.00
54910;BME280;63189;51.240;9.964;2023-04-08T07:50:56;98476.09;;;5.01;100.00
54910;BME280;63189;51.240;9.964;2023-04-08T07:53:21;98474.38;;;4.96;100.00
54910;BME280;63189;51.240;9.964;2023-04-08T07:55:48;98492.47;;;5.06;100.00
54910;BME280;63189;51.240;9.964;2023-04-08T07:58:13;98482.13;;;5.06;100.00
54910;BME280;63189;51.240;9.964;2023-04-08T08:00:39;98475.22;;;5.05;100.00
54910;BME280;63189;51.240;9.964;2023-04-08T08:03:05;98473.50;;;5.10;100.00
54910;BME280;63189;51.240;9.964;2023-04-08T08:05:30;98476.09;;;5.12;100.00
54910;BME280;63189;51.240;9.964;2023-04-08T08:07:55;98488.13;;;5.19;100.00
54910;BME280;63189;51.240;9.964;2023-04-08T08:10:21;98478.69;;;5.15;100.00
54910;BME280;63189;51.240;9.964;2023-04-08T08:12:46;98476.97;;;5.12;100.00
54910;BME280;63189;51.240;9.964;2023-04-08T08:15:11;98486.44;;;5.21;100.00
54910;BME280;63189;51.240;9.964;2023-04-08T08:17:37;98461.44;;;5.03;100.00
54910;BME280;63189;51.240;9.964;2023-04-08T08:20:03;98511.41;;;5.27;100.00
54910;BME280;63189;51.240;9.964;2023-04-08T08:22:29;98501.94;;;5.27;100.00
54910;BME280;63189;51.240;9.964;2023-04-08T08:24:57;98514.00;;;5.34;100.00
54910;BME280;63189;51.240;9.964;2023-04-08T08:27:23;98512.25;;;5.36;100.00
54910;BME280;63189;51.240;9.964;2023-04-08T08:29:49;98510.53;;;5.31;100.00
54910;BME280;63189;51.240;9.964;2023-04-08T08:32:14;98475.25;;;5.11;100.00
54910;BME280;63189;51.240;9.964;2023-04-08T08:34:40;98501.94;;;5.35;100.00
54910;BME280;63189;51.240;9.964;2023-04-08T08:37:05;98487.28;;;5.25;100.00
54910;BME280;63189;51.240;9.964;2023-04-08T08:39:31;98510.53;;;5.35;100.00
54910;BME280;63189;51.240;9.964;2023-04-08T08:41:56;98504.50;;;5.39;100.00
54910;BME280;63189;51.240;9.964;2023-04-08T08:44:22;98510.50;;;5.50;100.00
54910;BME280;63189;51.240;9.964;2023-04-08T08:46:48;98507.97;;;5.43;100.00
54910;BME280;63189;51.240;9.964;2023-04-08T08:49:13;98517.41;;;5.51;100.00
54910;BME280;63189;51.240;9.964;2023-04-08T08:51:39;98526.03;;;5.55;100.00
54910;BME280;63189;51.240;9.964;2023-04-08T08:54:05;98513.97;;;5.56;100.00
54910;BME280;63189;51.240;9.964;2023-04-08T08:56:34;98520.84;;;5.60;100.00
54910;BME280;63189;51.240;9.964;2023-04-08T08:58:59;98519.97;;;5.67;100.00
54910;BME280;63189;51.240;9.964;2023-04-08T09:01:31;98525.16;;;5.65;100.00
54910;BME280;63189;51.240;9.964;2023-04-08T09:04:13;98533.75;;;5.72;100.00
54910;BME280;63189;51.240;9.964;2023-04-08T09:06:41;98536.34;;;5.70;100.00
54910;BME280;63189;51.240;9.964;2023-04-08T09:09:07;98528.59;;;5.72;100.00
54910;BME280;63189;51.240;9.964;2023-04-08T09:11:39;98535.47;;;5.80;100.00
54910;BME280;63189;51.240;9.964;2023-04-08T09:14:23;98526.00;;;5.75;100.00
54910;BME280;63189;51.240;9.964;2023-04-08T09:16:49;98551.00;;;5.85;100.00
54910;BME280;63189;51.240;9.964;2023-04-08T09:19:15;98556.19;;;5.85;100.00
54910;BME280;63189;51.240;9.964;2023-04-08T09:21:41;98550.97;;;5.90;100.00
54910;BME280;63189;51.240;9.964;2023-04-08T09:24:08;98549.28;;;5.87;100.00
54910;BME280;63189;51.240;9.964;2023-04-08T09:26:35;98544.09;;;5.86;100.00
54910;BME280;63189;51.240;9.964;2023-04-08T09:29:08;98538.91;;;5.83;100.00
54910;BME280;63189;51.240;9.964;2023-04-08T09:31:36;98539.78;;;5.83;100.00
54910;BME280;63189;51.240;9.964;2023-04-08T09:34:15;98548.41;;;5.88;100.00
54910;BME280;63189;51.240;9.964;2023-04-08T09:36:41;98560.47;;;5.89;100.00
54910;BME280;63189;51.240;9.964;2023-04-08T09:39:08;98538.06;;;5.82;100.00
54910;BME280;63189;51.240;9.964;2023-04-08T09:41:36;98547.56;;;5.97;100.00
54910;BME280;63189;51.240;9.964;2023-04-08T09:44:03;98536.34;;;5.92;100.00
54910;BME280;63189;51.240;9.964;2023-04-08T09:46:37;98550.09;;;6.03;100.00
54910;BME280;63189;51.240;9.964;2023-04-08T09:49:10;98552.72;;;6.06;100.00
54910;BME280;63189;51.240;9.964;2023-04-08T09:51:44;98550.13;;;6.07;100.00
54910;BME280;63189;51.240;9.964;2023-04-08T09:54:18;98563.94;;;6.06;100.00
54910;BME280;63189;51.240;9.964;2023-04-08T09:56:59;98550.97;;;6.08;100.00
54910;BME280;63189;51.240;9.964;2023-04-08T09:59:29;98556.13;;;6.13;100.00
54910;BME280;63189;51.240;9.964;2023-04-08T10:02:00;98544.94;;;6.07;100.00
54910;BME280;63189;51.240;9.964;2023-04-08T10:04:31;98551.84;;;6.08;100.00
54910;BME280;63189;51.240;9.964;2023-04-08T10:07:05;98565.59;;;6.20;100.00
54910;BME280;63189;51.240;9.964;2023-04-08T10:09:33;98572.50;;;6.21;100.00
54910;BME280;63189;51.240;9.964;2023-04-08T10:12:00;98567.34;;;6.18;100.00
54910;BME280;63189;51.240;9.964;2023-04-08T10:14:25;98566.50;;;6.16;100.00
54910;BME280;63189;51.240;9.964;2023-04-08T10:17:25;98579.41;;;6.26;100.00
54910;BME280;63189;51.240;9.964;2023-04-08T10:19:59;98566.44;;;6.22;100.00
54910;BME280;63189;51.240;9.964;2023-04-08T10:27:40;98576.81;;;6.20;100.00
54910;BME280;63189;51.240;9.964;2023-04-08T10:32:50;98588.88;;;6.24;100.00
54910;BME280;63189;51.240;9.964;2023-04-08T10:35:15;98578.53;;;6.20;100.00
54910;BME280;63189;51.240;9.964;2023-04-08T10:37:41;98574.25;;;6.13;100.00
54910;BME280;63189;51.240;9.964;2023-04-08T10:40:18;98589.72;;;6.25;100.00
54910;BME280;63189;51.240;9.964;2023-04-08T10:42:43;98550.13;;;6.07;100.00
54910;BME280;63189;51.240;9.964;2023-04-08T10:45:09;98570.78;;;6.20;100.00
54910;BME280;63189;51.240;9.964;2023-04-08T10:47:35;98560.41;;;6.23;100.00
54910;BME280;63189;51.240;9.964;2023-04-08T10:50:11;98579.34;;;6.32;100.00
54910;BME280;63189;51.240;9.964;2023-04-08T10:52:48;98574.19;;;6.32;100.00
54910;BME280;63189;51.240;9.964;2023-04-08T10:55:14;98570.72;;;6.36;100.00
54910;BME280;63189;51.240;9.964;2023-04-08T10:57:41;98553.47;;;6.31;100.00
54910;BME280;63189;51.240;9.964;2023-04-08T11:00:11;98571.53;;;6.51;100.00
54910;BME280;63189;51.240;9.964;2023-04-08T11:02:39;98541.34;;;6.42;100.00
54910;BME280;63189;51.240;9.964;2023-04-08T11:05:05;98580.94;;;6.72;100.00
54910;BME280;63189;51.240;9.964;2023-04-08T11:07:39;98546.41;;;6.63;100.00
54910;BME280;63189;51.240;9.964;2023-04-08T11:10:06;98570.50;;;6.81;100.00
54910;BME280;63189;51.240;9.964;2023-04-08T11:12:32;98582.56;;;6.91;100.00
54910;BME280;63189;51.240;9.964;2023-04-08T11:14:58;98586.84;;;6.93;100.00
54910;BME280;63189;51.240;9.964;2023-04-08T11:17:23;98592.00;;;7.00;100.00
54910;BME280;63189;51.240;9.964;2023-04-08T11:19:49;98586.75;;;7.07;100.00
54910;BME280;63189;51.240;9.964;2023-04-08T11:22:14;98591.88;;;7.19;100.00
54910;BME280;63189;51.240;9.964;2023-04-08T11:24:40;98584.09;;;7.19;100.00
54910;BME280;63189;51.240;9.964;2023-04-08T11:27:06;98553.84;;;7.18;99.85
54910;BME280;63189;51.240;9.964;2023-04-08T11:29:32;98575.25;;;7.45;100.00
54910;BME280;63189;51.240;9.964;2023-04-08T11:31:58;98578.53;;;7.65;99.52
54910;BME280;63189;51.240;9.964;2023-04-08T11:34:24;98566.38;;;7.73;99.78
54910;BME280;63189;51.240;9.964;2023-04-08T11:36:50;98570.53;;;7.90;98.53
54910;BME280;63189;51.240;9.964;2023-04-08T11:39:16;98554.06;;;7.94;99.40
54910;BME280;63189;51.240;9.964;2023-04-08T11:41:41;98569.47;;;8.09;96.95
54910;BME280;63189;51.240;9.964;2023-04-08T11:44:07;98570.22;;;8.19;96.76
54910;BME280;63189;51.240;9.964;2023-04-08T11:46:36;98571.84;;;8.29;97.70
54910;BME280;63189;51.240;9.964;2023-04-08T11:49:06;98560.72;;;8.18;96.71
54910;BME280;63189;51.240;9.964;2023-04-08T11:51:33;98573.66;;;8.24;95.69
54910;BME280;63189;51.240;9.964;2023-04-08T11:53:59;98569.19;;;8.36;96.86
54910;BME280;63189;51.240;9.964;2023-04-08T11:56:26;98556.09;;;8.43;97.36
54910;BME280;63189;51.240;9.964;2023-04-08T11:58:54;98565.47;;;8.57;95.14
54910;BME280;63189;51.240;9.964;2023-04-08T12:01:19;98549.16;;;8.46;94.31
54910;BME280;63189;51.240;9.964;2023-04-08T12:03:56;98568.09;;;8.54;93.28
54910;BME280;63189;51.240;9.964;2023-04-08T12:06:22;98567.16;;;8.60;93.66
54910;BME280;63189;51.240;9.964;2023-04-08T12:08:48;98567.97;;;8.66;93.64
54910;BME280;63189;51.240;9.964;2023-04-08T12:11:13;98573.03;;;8.74;93.13
54910;BME280;63189;51.240;9.964;2023-04-08T12:13:40;98571.16;;;8.84;93.39
54910;BME280;63189;51.240;9.964;2023-04-08T12:16:06;98570.25;;;8.89;92.52
54910;BME280;63189;51.240;9.964;2023-04-08T12:18:31;98573.63;;;8.94;92.08
54910;BME280;63189;51.240;9.964;2023-04-08T12:20:56;98585.78;;;8.92;91.50
54910;BME280;63189;51.240;9.964;2023-04-08T12:23:22;98546.19;;;8.72;91.58
54910;BME280;63189;51.240;9.964;2023-04-08T12:25:47;98577.84;;;9.03;91.16
54910;BME280;63189;51.240;9.964;2023-04-08T12:28:12;98577.84;;;9.03;90.66
54910;BME280;63189;51.240;9.964;2023-04-08T12:30:38;98576.84;;;9.12;91.97
54910;BME280;63189;51.240;9.964;2023-04-08T12:33:03;98569.78;;;9.21;92.22
54910;BME280;63189;51.240;9.964;2023-04-08T12:35:28;98570.50;;;9.31;91.66
54910;BME280;63189;51.240;9.964;2023-04-08T12:37:54;98547.94;;;9.32;89.72
54910;BME280;63189;51.240;9.964;2023-04-08T12:40:19;98563.31;;;9.45;89.57
54910;BME280;63189;51.240;9.964;2023-04-08T12:42:45;98545.94;;;9.46;89.70
54910;BME280;63189;51.240;9.964;2023-04-08T12:45:10;98508.81;;;9.36;89.15
54910;BME280;63189;51.240;9.964;2023-04-08T12:47:35;98558.47;;;9.75;88.24
54910;BME280;63189;51.240;9.964;2023-04-08T12:50:01;98555.69;;;9.86;86.75
54910;BME280;63189;51.240;9.964;2023-04-08T12:52:27;98559.84;;;9.96;86.45
54910;BME280;63189;51.240;9.964;2023-04-08T12:54:52;98551.94;;;10.00;86.90
54910;BME280;63189;51.240;9.964;2023-04-08T12:57:17;98527.00;;;9.87;85.38
54910;BME280;63189;51.240;9.964;2023-04-08T12:59:43;98521.81;;;9.86;86.53
54910;BME280;63189;51.240;9.964;2023-04-08T13:02:08;98549.38;;;9.97;84.62
54910;BME280;63189;51.240;9.964;2023-04-08T13:04:33;98517.59;;;9.78;84.91
54910;BME280;63189;51.240;9.964;2023-04-08T13:06:59;98520.47;;;9.65;84.09
54910;BME280;63189;51.240;9.964;2023-04-08T13:09:25;98543.00;;;9.66;84.59
54910;BME280;63189;51.240;9.964;2023-04-08T13:11:50;98533.59;;;9.60;85.34
54910;BME280;63189;51.240;9.964;2023-04-08T13:14:18;98548.28;;;9.63;85.66
54910;BME280;63189;51.240;9.964;2023-04-08T13:16:44;98519.91;;;9.46;85.80